createdAt,value
2019-03-29T00:00:49.197Z,9.73
2019-03-29T00:06:22.789Z,9.97
2019-03-29T00:11:49.138Z,8.57
2019-03-29T00:14:34.283Z,8.73
2019-03-29T00:17:17.969Z,8.57
2019-03-29T00:20:01.404Z,9.23
2019-03-29T00:22:49.854Z,9.63
2019-03-29T00:25:34.823Z,9.43
2019-03-29T00:28:18.394Z,8.83
2019-03-29T00:31:08.573Z,8.33
2019-03-29T00:33:52.505Z,8.17
2019-03-29T00:36:46.256Z,9.60
2019-03-29T00:42:20.270Z,8.83
2019-03-29T00:45:05.124Z,9.30
2019-03-29T00:47:49.001Z,8.67
2019-03-29T00:50:32.927Z,8.93
2019-03-29T00:53:19.533Z,9.40
2019-03-29T00:56:02.983Z,9.30
2019-03-29T00:58:49.533Z,10.33
2019-03-29T01:01:35.372Z,8.90
2019-03-29T01:07:07.003Z,9.33
2019-03-29T01:09:51.333Z,8.80
2019-03-29T01:12:34.976Z,9.80
2019-03-29T01:15:19.615Z,8.73
2019-03-29T01:18:06.971Z,8.90
2019-03-29T01:23:35.171Z,8.80
2019-03-29T01:26:19.546Z,10.20
2019-03-29T01:29:04.569Z,8.57
2019-03-29T01:31:46.311Z,8.47
2019-03-29T01:34:28.685Z,8.83
2019-03-29T01:37:12.725Z,10.32
2019-03-29T01:39:57.168Z,9.90
2019-03-29T01:42:44.280Z,9.10
2019-03-29T01:45:28.443Z,8.33
2019-03-29T01:48:16.075Z,9.97
2019-03-29T01:51:04.499Z,8.97
2019-03-29T01:53:57.209Z,8.90
2019-03-29T01:56:39.233Z,9.70
2019-03-29T01:59:24.092Z,10.00
2019-03-29T02:02:01.214Z,9.40
2019-03-29T02:07:51.888Z,9.77
2019-03-29T02:13:23.161Z,10.13
2019-03-29T02:18:51.459Z,10.80
2019-03-29T02:21:36.828Z,11.03
2019-03-29T02:24:19.238Z,9.57
2019-03-29T02:27:04.416Z,9.87
2019-03-29T02:32:42.657Z,11.13
2019-03-29T02:35:27.522Z,11.00
2019-03-29T02:38:12.831Z,13.87
2019-03-29T02:40:57.745Z,11.53
2019-03-29T02:43:44.275Z,11.70
2019-03-29T02:46:29.647Z,14.28
2019-03-29T02:49:13.577Z,11.80
2019-03-29T02:54:43.191Z,14.70
2019-03-29T02:57:27.039Z,14.63
2019-03-29T03:00:11.649Z,12.03
2019-03-29T03:02:57.413Z,12.07
2019-03-29T03:05:44.274Z,11.60
2019-03-29T03:11:10.168Z,10.67
2019-03-29T03:13:54.995Z,14.60
2019-03-29T03:16:45.270Z,15.13
2019-03-29T03:22:14.878Z,11.37
2019-03-29T03:25:01.805Z,10.93
2019-03-29T03:27:47.245Z,10.70
2019-03-29T03:30:53.693Z,11.17
2019-03-29T03:33:19.901Z,10.53
2019-03-29T03:36:05.900Z,10.73
2019-03-29T03:38:48.164Z,11.20
2019-03-29T03:41:33.191Z,10.90
2019-03-29T03:44:17.190Z,10.80
2019-03-29T03:47:11.966Z,10.17
2019-03-29T03:49:54.112Z,10.90
2019-03-29T03:55:30.246Z,11.47
2019-03-29T04:00:58.497Z,10.43
2019-03-29T04:03:45.718Z,10.57
2019-03-29T04:06:28.962Z,10.93
2019-03-29T04:09:15.337Z,11.13
2019-03-29T04:11:58.364Z,11.17
2019-03-29T04:14:43.358Z,12.17
2019-03-29T04:17:25.410Z,11.27
2019-03-29T04:20:09.703Z,11.60
2019-03-29T04:25:47.164Z,10.83
2019-03-29T04:28:37.833Z,10.00
2019-03-29T04:31:12.060Z,11.40
2019-03-29T04:34:02.746Z,13.40
2019-03-29T04:36:44.998Z,13.33
2019-03-29T04:39:33.901Z,12.80
2019-03-29T04:42:17.849Z,13.43
2019-03-29T04:45:02.762Z,12.17
2019-03-29T04:47:36.246Z,12.93
2019-03-29T04:50:31.581Z,12.63
2019-03-29T04:55:59.921Z,11.77
2019-03-29T04:58:59.767Z,12.60
2019-03-29T05:01:43.126Z,16.30
2019-03-29T05:04:27.473Z,16.45
2019-03-29T05:07:03.341Z,13.60
2019-03-29T05:09:57.866Z,13.50
2019-03-29T05:12:47.170Z,11.97
2019-03-29T05:18:21.093Z,12.13
2019-03-29T05:21:06.170Z,12.43
2019-03-29T05:23:49.631Z,12.63
2019-03-29T05:26:34.923Z,12.03
2019-03-29T05:29:21.989Z,13.17
2019-03-29T05:34:59.659Z,12.70
2019-03-29T05:40:35.515Z,12.17
2019-03-29T05:49:40.373Z,12.17
2019-03-29T05:55:12.223Z,12.50
2019-03-29T05:58:01.619Z,12.10
2019-03-29T06:00:46.848Z,13.13
2019-03-29T06:06:04.864Z,13.57
2019-03-29T06:08:58.054Z,13.63
2019-03-29T06:11:32.192Z,13.93
2019-03-29T06:14:26.374Z,13.03
2019-03-29T06:17:00.691Z,13.53
2019-03-29T06:19:45.466Z,12.70
2019-03-29T06:22:40.552Z,13.00
2019-03-29T06:25:20.894Z,13.53
2019-03-29T06:28:13.408Z,13.70
2019-03-29T06:30:46.159Z,13.80
2019-03-29T06:33:37.987Z,13.57
2019-03-29T06:36:31.896Z,14.33
2019-03-29T06:42:13.128Z,14.50
2019-03-29T06:45:06.802Z,13.63
2019-03-29T06:47:42.725Z,13.13
2019-03-29T06:50:18.271Z,14.40
2019-03-29T06:52:51.680Z,15.27
2019-03-29T06:55:45.413Z,15.57
2019-03-29T06:58:18.487Z,15.00
2019-03-29T07:01:11.691Z,16.37
2019-03-29T07:06:42.589Z,16.67
2019-03-29T07:09:25.390Z,17.00
2019-03-29T07:11:58.976Z,16.90
2019-03-29T07:14:33.604Z,16.73
2019-03-29T07:17:09.985Z,16.27
2019-03-29T07:19:41.335Z,16.90
2019-03-29T07:22:15.568Z,16.97
2019-03-29T07:24:52.974Z,17.10
2019-03-29T07:27:27.182Z,17.63
2019-03-29T07:30:00.510Z,17.47
2019-03-29T07:32:36.619Z,17.40
2019-03-29T07:35:10.718Z,17.33
2019-03-29T07:37:47.550Z,16.63
2019-03-29T07:40:25.500Z,16.27
2019-03-29T07:42:58.360Z,15.10
2019-03-29T07:45:30.946Z,14.37
2019-03-29T07:48:24.614Z,14.43
2019-03-29T07:50:59.567Z,15.03
2019-03-29T07:53:36.607Z,14.67
2019-03-29T07:56:10.171Z,13.70
2019-03-29T07:58:45.558Z,14.13
2019-03-29T08:01:19.122Z,14.13
2019-03-29T08:03:55.523Z,14.00
2019-03-29T08:06:28.047Z,13.70
2019-03-29T08:09:02.267Z,13.10
2019-03-29T08:17:18.169Z,12.83
2019-03-29T08:20:09.411Z,12.50
2019-03-29T08:22:27.376Z,12.50
2019-03-29T08:25:04.859Z,12.90
2019-03-29T08:27:41.663Z,13.50
2019-03-29T08:30:15.684Z,13.47
2019-03-29T08:33:07.808Z,14.13
2019-03-29T08:36:03.279Z,12.87
2019-03-29T08:38:39.140Z,13.03
2019-03-29T08:41:34.601Z,14.53
2019-03-29T08:44:19.078Z,12.63
2019-03-29T08:46:52.878Z,13.63
2019-03-29T08:49:26.962Z,13.40
2019-03-29T08:52:02.131Z,14.70
2019-03-29T08:54:36.793Z,13.07
2019-03-29T08:57:27.505Z,13.93
2019-03-29T09:00:01.486Z,13.23
2019-03-29T09:02:35.499Z,12.40
2019-03-29T09:05:08.695Z,13.57
2019-03-29T09:07:45.313Z,14.23
2019-03-29T09:10:32.178Z,14.03
2019-03-29T09:13:06.161Z,13.17
2019-03-29T09:16:03.221Z,13.43
2019-03-29T09:18:54.932Z,13.10
2019-03-29T09:21:29.360Z,13.30
2019-03-29T09:24:25.214Z,12.53
2019-03-29T09:27:00.436Z,12.70
2019-03-29T09:30:16.675Z,14.10
2019-03-29T09:32:51.882Z,13.03
2019-03-29T09:35:49.700Z,12.90
2019-03-29T09:38:24.379Z,12.77
2019-03-29T09:41:00.350Z,13.10
2019-03-29T09:43:34.491Z,12.90
2019-03-29T09:46:27.890Z,12.30
2019-03-29T09:49:14.078Z,12.63
2019-03-29T09:51:49.028Z,13.37
2019-03-29T09:54:21.385Z,13.17
2019-03-29T09:56:58.662Z,12.37
2019-03-29T09:59:32.703Z,12.50
2019-03-29T10:02:09.784Z,12.47
2019-03-29T10:04:44.694Z,11.53
2019-03-29T10:07:18.195Z,12.27
2019-03-29T10:09:52.273Z,12.07
2019-03-29T10:12:42.599Z,12.20
2019-03-29T10:15:08.050Z,12.17
2019-03-29T10:17:42.017Z,11.90
2019-03-29T10:20:14.697Z,11.57
2019-03-29T10:22:47.622Z,12.83
2019-03-29T10:25:25.269Z,11.50
2019-03-29T10:28:01.846Z,12.37
2019-03-29T10:30:54.904Z,11.03
2019-03-29T10:33:28.767Z,11.37
2019-03-29T10:36:04.350Z,12.27
2019-03-29T10:38:58.030Z,10.90
2019-03-29T10:41:59.543Z,11.68
2019-03-29T10:44:33.276Z,10.45
2019-03-29T10:47:40.910Z,11.28
2019-03-29T10:50:01.761Z,12.50
2019-03-29T10:52:39.958Z,12.73
2019-03-29T10:55:14.293Z,10.95
2019-03-29T10:57:50.672Z,10.53
2019-03-29T11:00:43.998Z,11.80
2019-03-29T11:03:18.768Z,11.03
2019-03-29T11:05:55.340Z,11.63
2019-03-29T11:08:29.343Z,12.43
2019-03-29T11:11:21.974Z,12.18
2019-03-29T11:14:08.861Z,12.23
2019-03-29T11:16:43.259Z,10.65
2019-03-29T11:19:17.699Z,11.53
2019-03-29T11:21:52.279Z,12.50
2019-03-29T11:24:26.787Z,11.08
2019-03-29T11:27:01.576Z,11.48
2019-03-29T11:29:53.165Z,11.10
2019-03-29T11:32:26.085Z,11.38
2019-03-29T11:35:18.883Z,11.75
2019-03-29T11:37:52.799Z,11.78
2019-03-29T11:40:29.519Z,11.57
2019-03-29T11:43:03.864Z,11.85
2019-03-29T11:45:40.559Z,11.57
2019-03-29T11:48:14.977Z,11.63
2019-03-29T11:50:50.535Z,12.00
2019-03-29T11:53:24.275Z,10.98
2019-03-29T11:56:15.807Z,11.93
2019-03-29T11:58:48.543Z,11.68
2019-03-29T12:01:42.642Z,11.83
2019-03-29T12:04:19.292Z,12.20
2019-03-29T12:06:54.755Z,11.55
2019-03-29T12:09:51.091Z,11.20
2019-03-29T12:12:44.193Z,12.33
2019-03-29T12:15:40.589Z,11.90
2019-03-29T12:18:15.145Z,14.15
2019-03-29T12:20:49.616Z,11.22
2019-03-29T12:23:25.280Z,11.40
2019-03-29T12:26:01.264Z,11.53
2019-03-29T12:28:55.551Z,10.53
2019-03-29T12:31:28.514Z,11.15
2019-03-29T12:34:07.017Z,11.57
2019-03-29T12:36:41.301Z,11.35
2019-03-29T12:39:18.043Z,10.88
2019-03-29T12:41:53.723Z,11.08
2019-03-29T12:44:29.137Z,11.18
2019-03-29T12:47:03.229Z,11.28
2019-03-29T12:49:43.454Z,10.00
2019-03-29T12:52:32.399Z,9.58
2019-03-29T12:55:05.691Z,10.03
2019-03-29T12:57:40.184Z,10.78
2019-03-29T13:00:32.984Z,9.95
2019-03-29T13:03:26.112Z,11.65
2019-03-29T13:06:00.261Z,10.98
2019-03-29T13:08:36.114Z,9.78
2019-03-29T13:11:27.632Z,11.50
2019-03-29T13:14:10.597Z,9.95
2019-03-29T13:16:42.247Z,10.35
2019-03-29T13:19:20.236Z,10.63
2019-03-29T13:21:54.904Z,10.18
2019-03-29T13:24:28.239Z,10.55
2019-03-29T13:27:04.496Z,11.63
2019-03-29T13:29:56.963Z,10.38
2019-03-29T13:32:33.906Z,10.58
2019-03-29T13:35:07.633Z,10.50
2019-03-29T13:38:01.315Z,10.28
2019-03-29T13:40:35.681Z,10.72
2019-03-29T13:43:32.910Z,10.13
2019-03-29T13:46:23.623Z,11.10
2019-03-29T13:52:08.217Z,9.33
2019-03-29T13:54:45.580Z,9.73
2019-03-29T13:57:20.295Z,11.22
2019-03-29T14:00:12.911Z,9.58
2019-03-29T14:05:40.090Z,10.20
2019-03-29T14:08:14.987Z,10.23
2019-03-29T14:10:49.002Z,9.23
2019-03-29T14:13:41.724Z,9.28
2019-03-29T14:16:19.080Z,8.78
2019-03-29T14:18:53.533Z,9.08
2019-03-29T14:21:29.567Z,9.33
2019-03-29T14:24:21.509Z,10.32
2019-03-29T14:27:14.256Z,11.63
2019-03-29T14:29:48.592Z,10.68
2019-03-29T14:32:23.057Z,9.30
2019-03-29T14:34:59.030Z,8.63
2019-03-29T14:37:55.418Z,8.88
2019-03-29T14:40:31.660Z,9.30
2019-03-29T14:43:05.402Z,8.50
2019-03-29T14:45:42.730Z,9.28
2019-03-29T14:48:21.306Z,8.70
2019-03-29T14:50:56.012Z,8.30
2019-03-29T14:53:37.653Z,7.92
2019-03-29T14:56:15.419Z,7.95
2019-03-29T14:59:08.211Z,8.30
2019-03-29T15:04:52.692Z,7.62
2019-03-29T15:07:30.840Z,7.90
2019-03-29T15:10:28.657Z,8.38
2019-03-29T15:15:59.933Z,9.25
2019-03-29T15:18:51.424Z,8.40
2019-03-29T15:21:28.932Z,8.53
2019-03-29T15:24:05.508Z,10.63
2019-03-29T15:26:41.578Z,8.78
2019-03-29T15:29:34.666Z,9.48
2019-03-29T15:32:16.777Z,8.85
2019-03-29T15:34:51.986Z,9.18
2019-03-29T15:37:26.679Z,9.03
2019-03-29T15:40:18.674Z,9.05
2019-03-29T15:42:51.805Z,9.08
2019-03-29T15:46:01.551Z,8.60
2019-03-29T15:48:38.215Z,8.78
2019-03-29T15:56:51.538Z,9.05
2019-03-29T15:59:26.565Z,9.43
2019-03-29T16:02:04.670Z,10.05
2019-03-29T16:04:58.478Z,9.15
2019-03-29T16:10:41.462Z,9.58
2019-03-29T16:13:16.789Z,9.35
2019-03-29T16:15:54.214Z,8.63
2019-03-29T16:18:48.443Z,9.55
2019-03-29T16:21:25.711Z,8.78
2019-03-29T16:24:03.053Z,9.03
2019-03-29T16:26:54.882Z,9.58
2019-03-29T16:29:47.619Z,9.25
2019-03-29T16:32:30.143Z,9.18
2019-03-29T16:35:03.194Z,9.30
2019-03-29T16:37:57.733Z,9.53
2019-03-29T16:40:38.482Z,8.20
2019-03-29T16:46:10.930Z,8.35
2019-03-29T16:48:50.750Z,8.80
2019-03-29T17:23:32.313Z,9.35
2019-03-29T17:26:06.415Z,20.57
2019-03-29T17:28:42.401Z,16.42
2019-03-29T17:31:16.766Z,13.72
2019-03-29T17:33:53.590Z,12.23
2019-03-29T17:36:29.619Z,13.20
2019-03-29T17:39:23.030Z,14.87
2019-03-29T17:44:41.123Z,23.22
2019-03-29T17:47:17.616Z,17.45
2019-03-29T17:49:51.689Z,16.02
2019-03-29T17:52:25.938Z,13.75
2019-03-29T17:55:16.662Z,11.73
2019-03-29T17:58:09.018Z,12.88
2019-03-29T18:00:51.988Z,13.38
2019-03-29T18:03:46.615Z,12.75
2019-03-29T18:06:54.864Z,10.60
2019-03-29T18:09:50.582Z,8.33
2019-03-29T18:12:43.564Z,8.03
2019-03-29T18:15:25.844Z,8.67
2019-03-29T18:19:33.363Z,9.20
2019-03-29T18:21:13.649Z,8.57
2019-03-29T18:23:49.419Z,8.77
2019-03-29T18:26:27.390Z,9.93
2019-03-29T18:29:21.662Z,9.73
2019-03-29T18:32:01.152Z,10.63
2019-03-29T18:35:11.321Z,10.00
2019-03-29T18:46:21.873Z,14.77
2019-03-29T18:49:00.653Z,15.80
2019-03-29T18:51:38.368Z,14.00
2019-03-29T18:54:16.339Z,11.83
2019-03-29T18:59:50.146Z,10.60
2019-03-29T19:02:32.783Z,9.13
2019-03-29T19:05:10.734Z,13.17
2019-03-29T19:07:52.571Z,12.57
2019-03-29T19:10:28.667Z,10.80
2019-03-29T19:13:03.763Z,11.23
2019-03-29T19:15:56.128Z,11.87
2019-03-29T19:18:50.031Z,10.33
2019-03-29T19:21:36.153Z,10.17
2019-03-29T19:24:23.172Z,8.30
2019-03-29T19:30:06.900Z,8.00
2019-03-29T19:32:56.467Z,8.00
2019-03-29T19:35:33.835Z,7.50
2019-03-29T19:38:25.714Z,8.30
2019-03-29T19:41:11.700Z,8.53
2019-03-29T19:47:12.982Z,7.70
2019-03-29T19:49:35.724Z,8.50
2019-03-29T19:52:28.173Z,9.07
2019-03-29T19:55:19.714Z,9.07
2019-03-29T19:57:55.205Z,9.00
2019-03-29T20:10:02.571Z,9.00
2019-03-29T20:12:47.558Z,8.23
2019-03-29T20:18:43.423Z,8.67
2019-03-29T20:24:22.121Z,7.40
2019-03-29T20:27:38.587Z,7.23
2019-03-29T20:30:21.786Z,7.60
2019-03-29T20:35:53.945Z,8.20
2019-03-29T20:38:29.999Z,8.27
2019-03-29T20:41:22.979Z,8.90
2019-03-29T20:46:50.349Z,8.00
2019-03-29T20:49:27.349Z,7.83
2019-03-29T20:52:42.250Z,7.40
2019-03-29T20:58:09.420Z,9.30
2019-03-29T21:05:12.653Z,8.77
2019-03-29T21:09:19.435Z,9.10
2019-03-29T21:12:10.408Z,9.40
2019-03-29T21:14:44.002Z,11.43
2019-03-29T21:17:38.005Z,8.80
2019-03-29T21:20:30.969Z,8.53
2019-03-29T21:23:26.762Z,8.00
2019-03-29T21:26:13.519Z,7.80
2019-03-29T21:28:47.466Z,7.97
2019-03-29T21:32:01.364Z,7.43
2019-03-29T21:34:35.215Z,7.93
2019-03-29T21:37:30.756Z,7.90
2019-03-29T21:40:22.574Z,8.40
2019-03-29T21:42:56.776Z,8.00
2019-03-29T21:45:30.304Z,7.30
2019-03-29T21:48:25.521Z,8.00
2019-03-29T21:50:45.111Z,8.57
2019-03-29T21:53:33.376Z,8.87
2019-03-29T21:59:06.992Z,8.60
2019-03-29T22:04:34.014Z,10.73
2019-03-29T22:07:19.305Z,11.65
2019-03-29T22:10:03.480Z,10.10
2019-03-29T22:21:30.744Z,8.30
2019-03-29T22:24:06.972Z,10.70
2019-03-29T22:26:41.441Z,7.80
2019-03-29T22:32:36.874Z,9.63
2019-03-29T22:38:07.397Z,9.50
2019-03-29T22:43:35.472Z,8.30
2019-03-29T22:52:14.196Z,8.33
2019-03-29T22:55:30.638Z,9.30
2019-03-29T23:04:35.102Z,8.10
2019-03-29T23:10:09.340Z,7.17
2019-03-29T23:15:47.173Z,7.17
2019-03-29T23:21:17.694Z,8.50
2019-03-29T23:24:18.048Z,9.40
2019-03-29T23:29:47.563Z,9.23
2019-03-29T23:32:38.943Z,9.03
2019-03-29T23:35:29.771Z,8.93
2019-03-29T23:41:01.046Z,8.90
2019-03-29T23:46:31.651Z,8.83
2019-03-29T23:49:21.158Z,10.03
2019-03-29T23:51:54.371Z,8.37
2019-03-29T23:54:50.813Z,8.90
